Time;durP1;ratioP1;P1;durP2;ratioP2;P2;SDS_P1;SDS_P2;PMS_P1;PMS_P2;Temp;Humidity;BMP_temperature;BMP_pressure;BME280_temperature;BME280_humidity;BME280_pressure;Samples;Min_cycle;Max_cycle;Signal;HPM_P1;HPM_P2
2021/01/16 00:01:03;;;;;;;29.55;15.13;;;-0.70;67.50;;;;;;2259616;56;20993;-69
2021/01/16 00:03:30;;;;;;;31.70;15.82;;;-0.80;67.50;;;;;;2488182;55;21524;-69
2021/01/16 00:05:59;;;;;;;26.33;13.98;;;-0.60;67.80;;;;;;2260302;56;20949;-68
2021/01/16 00:08:25;;;;;;;29.15;14.87;;;-0.60;67.90;;;;;;2509964;55;20977;-69
2021/01/16 00:10:56;;;;;;;31.05;14.73;;;-0.50;68.10;;;;;;2487519;55;21417;-69
2021/01/16 00:13:25;;;;;;;29.47;15.13;;;-0.50;68.10;;;;;;2487408;55;20962;-69
2021/01/16 00:15:51;;;;;;;29.10;14.60;;;-0.40;68.10;;;;;;2483369;55;20981;-68
2021/01/16 00:18:19;;;;;;;28.85;13.90;;;-0.40;68.00;;;;;;2261225;56;20945;-70
2021/01/16 00:20:50;;;;;;;31.80;15.38;;;-0.30;68.00;;;;;;2259615;56;20908;-68
2021/01/16 00:23:16;;;;;;;31.65;16.10;;;-0.30;68.70;;;;;;2485814;55;21056;-68
2021/01/16 00:25:43;;;;;;;34.10;15.82;;;-0.30;68.00;;;;;;2261805;56;20945;-68
2021/01/16 00:28:18;;;;;;;30.23;15.90;;;-0.20;68.10;;;;;;2258225;56;20988;-68
2021/01/16 00:30:45;;;;;;;28.23;13.40;;;-0.20;68.20;;;;;;2259207;56;21010;-68
2021/01/16 00:33:20;;;;;;;29.08;15.73;;;-0.10;68.20;;;;;;2261480;56;20972;-69
2021/01/16 00:35:47;;;;;;;31.52;15.75;;;-0.10;68.20;;;;;;2483386;55;20937;-69
2021/01/16 00:38:14;;;;;;;29.15;14.10;;;-0.10;68.20;;;;;;2258839;56;20921;-69
2021/01/16 00:40:42;;;;;;;29.83;14.87;;;0.00;68.30;;;;;;2486831;55;21031;-69
2021/01/16 00:43:11;;;;;;;29.15;14.23;;;0.00;68.20;;;;;;2259337;56;20917;-69
2021/01/16 00:45:41;;;;;;;27.20;13.65;;;0.00;68.20;;;;;;2262619;56;21035;-69
2021/01/16 00:48:17;;;;;;;27.15;13.60;;;0.10;68.40;;;;;;2486980;55;21005;-69
2021/01/16 00:50:44;;;;;;;27.35;13.48;;;0.10;68.40;;;;;;2259769;56;20941;-69
2021/01/16 00:53:12;;;;;;;25.00;13.18;;;0.10;68.30;;;;;;2488366;55;20957;-69
2021/01/16 00:55:38;;;;;;;26.50;13.40;;;0.20;68.40;;;;;;2487001;55;21103;-69
2021/01/16 00:58:09;;;;;;;26.77;12.77;;;0.20;68.40;;;;;;2485999;55;20957;-69
2021/01/16 01:00:36;;;;;;;24.90;12.70;;;0.20;68.40;;;;;;2483689;55;20996;-68
2021/01/16 01:03:03;;;;;;;24.60;12.90;;;0.30;68.50;;;;;;2487591;55;20941;-69
2021/01/16 01:05:29;;;;;;;25.35;12.90;;;0.30;68.30;;;;;;2259882;56;20961;-69
2021/01/16 01:07:56;;;;;;;21.65;11.38;;;0.30;68.20;;;;;;2484670;55;20921;-69
2021/01/16 01:10:31;;;;;;;29.10;11.82;;;0.40;68.20;;;;;;2487798;55;20945;-69
2021/01/16 01:12:58;;;;;;;22.60;10.90;;;0.40;68.20;;;;;;2465563;55;20981;-69
2021/01/16 01:15:25;;;;;;;26.00;12.98;;;0.40;68.10;;;;;;2491052;55;21024;-69
2021/01/16 01:17:58;;;;;;;23.90;12.00;;;0.40;68.00;;;;;;2483251;55;21441;-69
2021/01/16 01:20:24;;;;;;;27.27;13.07;;;0.40;68.00;;;;;;2260952;56;21191;-68
2021/01/16 01:22:50;;;;;;;27.65;12.45;;;0.40;67.90;;;;;;2489900;55;21422;-68
2021/01/16 01:25:17;;;;;;;21.87;10.70;;;0.40;67.80;;;;;;2490112;55;20985;-69
2021/01/16 01:27:49;;;;;;;21.42;10.98;;;0.50;68.00;;;;;;2263961;56;20989;-68
2021/01/16 01:30:16;;;;;;;;;;;0.50;68.00;;;;;;2261528;56;20957;-69
2021/01/16 01:32:42;;;;;;;22.87;11.38;;;0.50;67.60;;;;;;2490149;55;20073;-68
2021/01/16 01:35:09;;;;;;;23.70;11.23;;;0.50;67.90;;;;;;2261468;56;20981;-70
2021/01/16 01:37:42;;;;;;;21.83;9.65;;;0.50;68.10;;;;;;2484339;55;21001;-69
2021/01/16 01:40:09;;;;;;;24.70;11.52;;;0.60;68.10;;;;;;2489770;55;20945;-69
2021/01/16 01:42:36;;;;;;;20.20;10.07;;;0.60;68.20;;;;;;2486814;55;20989;-68
2021/01/16 01:45:04;;;;;;;22.95;11.45;;;0.60;68.10;;;;;;2259830;56;20996;-69
2021/01/16 01:47:30;;;;;;;19.65;11.00;;;0.60;68.00;;;;;;2260211;56;21013;-69
2021/01/16 01:49:57;;;;;;;20.77;10.77;;;0.60;68.00;;;;;;2485867;55;20989;-69
2021/01/16 01:52:26;;;;;;;20.37;10.30;;;0.70;68.10;;;;;;2261305;56;20976;-70
2021/01/16 01:54:53;;;;;;;20.12;9.85;;;0.60;67.90;;;;;;2490534;55;21006;-69
2021/01/16 01:57:20;;;;;;;20.50;10.38;;;0.60;67.80;;;;;;2489727;55;20996;-70
2021/01/16 01:59:49;;;;;;;19.17;9.88;;;0.70;67.90;;;;;;2261034;56;20989;-69
2021/01/16 02:02:16;;;;;;;18.20;8.70;;;0.70;67.90;;;;;;2486556;55;20940;-68
2021/01/16 02:04:46;;;;;;;21.55;10.45;;;0.60;67.80;;;;;;2259996;56;21020;-69
2021/01/16 02:08:13;;;;;;;18.98;9.48;;;0.70;67.80;;;;;;2261337;56;20973;-70
2021/01/16 02:10:39;;;;;;;22.92;9.95;;;0.70;67.60;;;;;;2489891;55;21081;-68
2021/01/16 02:13:06;;;;;;;18.10;9.48;;;0.60;67.60;;;;;;2489069;55;20961;-70
2021/01/16 02:16:24;;;;;;;21.42;9.52;;;0.70;67.70;;;;;;2491110;55;20985;-69
2021/01/16 02:18:50;;;;;;;21.65;9.82;;;0.70;67.40;;;;;;2490533;55;21058;-68
2021/01/16 02:21:17;;;;;;;21.08;10.45;;;0.70;67.40;;;;;;2489659;55;20929;-70
2021/01/16 02:24:03;;;;;;;20.08;10.38;;;0.70;67.30;;;;;;2490144;55;21513;-68
2021/01/16 02:27:02;;;;;;;18.83;9.68;;;0.70;67.30;;;;;;2490045;55;21041;-70
2021/01/16 02:29:29;;;;;;;19.25;9.70;;;0.60;67.20;;;;;;2264312;56;21878;-69
2021/01/16 02:32:03;;;;;;;21.87;10.85;;;0.70;67.30;;;;;;2483346;55;20961;-69
2021/01/16 02:34:41;;;;;;;18.17;9.77;;;0.60;67.30;;;;;;2488797;55;21386;-69
2021/01/16 02:40:16;;;;;;;18.27;9.20;;;0.70;67.40;;;;;;2484061;55;21107;-69
2021/01/16 02:43:08;;;;;;;21.75;9.85;;;0.70;67.00;;;;;;2489033;55;21021;-69
2021/01/16 02:45:36;;;;;;;23.17;10.60;;;0.70;67.20;;;;;;2259269;56;22094;-69
2021/01/16 02:48:23;;;;;;;19.35;10.18;;;0.60;67.10;;;;;;2260331;56;20969;-68
2021/01/16 02:50:51;;;;;;;22.87;10.25;;;0.60;67.20;;;;;;2262415;56;21029;-69
2021/01/16 02:53:22;;;;;;;21.92;10.38;;;0.60;67.30;;;;;;2260755;56;20957;-68
2021/01/16 02:55:49;;;;;;;21.87;11.05;;;0.60;67.40;;;;;;2491073;55;21013;-69
2021/01/16 02:58:18;;;;;;;17.45;8.73;;;0.60;67.40;;;;;;2489898;55;20977;-68
2021/01/16 03:00:46;;;;;;;23.35;10.45;;;0.60;67.50;;;;;;2489247;55;21058;-68
2021/01/16 03:03:12;;;;;;;22.62;10.30;;;0.60;67.50;;;;;;2484368;55;20972;-69
2021/01/16 03:05:41;;;;;;;15.80;8.18;;;0.60;67.50;;;;;;2485538;55;21414;-70
2021/01/16 03:08:08;;;;;;;19.08;9.48;;;0.70;67.60;;;;;;2260768;56;20921;-69
2021/01/16 03:10:35;;;;;;;20.75;10.40;;;0.70;67.50;;;;;;2490997;55;21020;-69
2021/01/16 03:13:01;;;;;;;19.60;9.93;;;0.70;67.50;;;;;;2490023;55;20981;-70
2021/01/16 03:15:29;;;;;;;19.37;10.02;;;0.70;67.30;;;;;;2489510;55;20969;-69
2021/01/16 03:17:56;;;;;;;23.65;10.88;;;0.60;67.00;;;;;;2260794;56;21100;-69
2021/01/16 03:20:30;;;;;;;23.77;10.65;;;0.60;66.80;;;;;;2486503;55;20937;-69
2021/01/16 03:22:58;;;;;;;22.35;10.32;;;0.60;66.70;;;;;;2264351;56;20965;-69
2021/01/16 03:25:27;;;;;;;21.58;10.30;;;0.60;66.50;;;;;;2257246;56;22833;-69
2021/01/16 03:27:54;;;;;;;22.00;10.25;;;0.50;66.10;;;;;;2486018;55;20953;-69
2021/01/16 03:30:21;;;;;;;21.87;10.15;;;0.50;65.90;;;;;;2261527;56;20965;-69
2021/01/16 03:32:48;;;;;;;19.35;9.98;;;0.50;65.70;;;;;;2488811;55;21359;-69
2021/01/16 03:35:16;;;;;;;20.40;10.23;;;0.40;65.40;;;;;;2490540;55;21457;-69
2021/01/16 03:37:46;;;;;;;21.05;8.70;;;0.30;65.00;;;;;;2262234;56;21040;-68
2021/01/16 03:40:13;;;;;;;18.55;9.38;;;0.30;64.90;;;;;;2488787;55;20972;-68
2021/01/16 03:42:41;;;;;;;17.23;8.57;;;0.20;64.70;;;;;;2489988;55;20939;-67
2021/01/16 03:45:30;;;;;;;17.27;9.10;;;0.10;64.50;;;;;;2469672;55;20977;-68
2021/01/16 03:47:58;;;;;;;17.75;8.50;;;0.10;64.50;;;;;;2485320;55;20985;-68
2021/01/16 03:50:24;;;;;;;19.65;9.00;;;0.00;64.50;;;;;;2488697;55;21769;-68
2021/01/16 03:52:51;;;;;;;17.90;8.63;;;-0.10;64.50;;;;;;2486216;55;21001;-69
2021/01/16 03:55:17;;;;;;;17.80;9.48;;;-0.10;64.60;;;;;;2262604;56;20921;-68
2021/01/16 03:57:43;;;;;;;19.87;8.55;;;-0.10;64.80;;;;;;2489939;55;20957;-69
2021/01/16 04:00:13;;;;;;;19.08;8.60;;;-0.20;65.10;;;;;;2259287;56;22444;-69
2021/01/16 04:02:39;;;;;;;19.92;9.48;;;-0.20;65.40;;;;;;2487979;55;20929;-68
2021/01/16 04:05:06;;;;;;;19.10;8.93;;;-0.20;65.70;;;;;;2488876;55;20929;-69
2021/01/16 04:07:34;;;;;;;21.58;9.60;;;-0.20;66.20;;;;;;2490374;55;21746;-68
2021/01/16 04:10:00;;;;;;;21.25;10.07;;;-0.20;66.40;;;;;;2488576;55;20948;-70
2021/01/16 04:12:28;;;;;;;20.10;9.05;;;-0.20;66.80;;;;;;2483660;55;20929;-69
2021/01/16 04:14:55;;;;;;;17.62;8.55;;;-0.20;67.10;;;;;;2260641;56;20997;-70
2021/01/16 04:17:21;;;;;;;20.27;8.88;;;-0.10;67.40;;;;;;2485568;55;20968;-68
2021/01/16 04:19:48;;;;;;;16.55;8.52;;;-0.10;67.60;;;;;;2489994;55;21013;-69
2021/01/16 04:22:14;;;;;;;17.48;8.88;;;-0.10;67.70;;;;;;2484825;55;20920;-69
2021/01/16 04:24:46;;;;;;;19.17;9.27;;;0.00;67.80;;;;;;2486211;55;21036;-69
2021/01/16 04:27:13;;;;;;;16.25;9.02;;;0.00;67.80;;;;;;2488542;55;21394;-70
2021/01/16 04:29:39;;;;;;;18.80;8.95;;;0.10;68.00;;;;;;2486179;55;20974;-69
2021/01/16 04:32:06;;;;;;;18.12;8.32;;;0.10;68.00;;;;;;2487263;55;21694;-69
2021/01/16 04:34:35;;;;;;;17.87;8.60;;;0.10;68.00;;;;;;2488668;55;20964;-69
2021/01/16 04:37:01;;;;;;;17.20;8.88;;;0.20;68.10;;;;;;2484889;55;20981;-68
2021/01/16 04:39:28;;;;;;;16.48;7.95;;;0.20;68.10;;;;;;2489587;55;21029;-68
2021/01/16 04:41:55;;;;;;;19.73;9.38;;;0.20;68.10;;;;;;2261583;56;20929;-68
2021/01/16 04:44:22;;;;;;;18.60;9.10;;;0.20;68.10;;;;;;2491011;55;20981;-69
2021/01/16 04:46:51;;;;;;;17.62;8.65;;;0.30;68.20;;;;;;2485566;55;21856;-69
2021/01/16 04:49:17;;;;;;;16.87;8.85;;;0.40;68.30;;;;;;2490820;55;20905;-69
2021/01/16 04:51:46;;;;;;;18.23;9.82;;;0.40;68.40;;;;;;2266202;56;20997;-69
2021/01/16 04:54:15;;;;;;;18.70;9.68;;;0.40;68.50;;;;;;2486624;55;20933;-69
2021/01/16 04:56:41;;;;;;;21.52;10.45;;;0.50;68.50;;;;;;2262799;56;21010;-69
2021/01/16 04:59:08;;;;;;;29.63;16.30;;;0.50;68.50;;;;;;2261309;56;20973;-70
2021/01/16 05:01:34;;;;;;;20.83;10.90;;;0.50;68.50;;;;;;2489246;55;20993;-68
2021/01/16 05:04:01;;;;;;;19.73;10.38;;;0.60;68.40;;;;;;2485026;55;20997;-69
2021/01/16 05:06:28;;;;;;;19.48;9.77;;;0.60;68.40;;;;;;2490550;55;20958;-69
2021/01/16 05:08:59;;;;;;;18.25;9.98;;;0.60;68.40;;;;;;2491628;55;20926;-69
2021/01/16 05:11:41;;;;;;;19.98;9.68;;;0.70;68.50;;;;;;2262811;56;21421;-69
2021/01/16 05:14:17;;;;;;;18.02;9.65;;;0.70;68.50;;;;;;2488145;55;20949;-69
2021/01/16 05:16:58;;;;;;;21.33;10.95;;;0.70;68.40;;;;;;2485789;55;20992;-70
2021/01/16 05:19:27;;;;;;;21.00;10.38;;;0.80;68.40;;;;;;2489648;55;20938;-69
2021/01/16 05:21:54;;;;;;;21.23;10.73;;;0.70;68.40;;;;;;2488940;55;20952;-69
2021/01/16 05:24:20;;;;;;;19.58;9.35;;;0.80;68.40;;;;;;2487809;55;21005;-69
2021/01/16 05:27:06;;;;;;;20.50;10.07;;;0.80;68.30;;;;;;2487810;55;20961;-69
2021/01/16 05:29:35;;;;;;;21.70;10.10;;;0.80;68.10;;;;;;2488533;55;21013;-68
2021/01/16 05:32:03;;;;;;;19.48;9.10;;;0.80;68.00;;;;;;2484541;55;20945;-68
2021/01/16 05:34:31;;;;;;;17.33;8.88;;;0.80;68.00;;;;;;2487285;55;21821;-70
2021/01/16 05:36:58;;;;;;;16.12;8.48;;;0.80;67.90;;;;;;2479114;55;20933;-69
2021/01/16 05:39:27;;;;;;;14.90;7.28;;;0.80;67.80;;;;;;2489896;55;21731;-69
2021/01/16 05:42:00;;;;;;;15.55;6.53;;;0.80;67.70;;;;;;2490028;55;20909;-68
2021/01/16 05:44:27;;;;;;;17.67;8.48;;;0.80;67.70;;;;;;2263255;56;21443;-69
2021/01/16 05:46:53;;;;;;;13.73;7.70;;;0.80;67.70;;;;;;2485272;55;21414;-69
2021/01/16 05:49:21;;;;;;;14.52;7.50;;;0.80;67.70;;;;;;2486254;55;21293;-69
2021/01/16 05:51:49;;;;;;;15.73;7.07;;;0.80;67.60;;;;;;2486118;55;20957;-68
2021/01/16 05:54:16;;;;;;;12.45;6.30;;;0.80;67.60;;;;;;2485220;55;21951;-69
2021/01/16 05:56:43;;;;;;;9.75;4.47;;;0.80;67.70;;;;;;2490810;55;20997;-69
2021/01/16 05:59:11;;;;;;;10.00;4.90;;;0.80;67.70;;;;;;2490551;55;20906;-69
2021/01/16 06:01:42;;;;;;;12.00;5.60;;;0.80;67.70;;;;;;2489767;55;20997;-70
2021/01/16 06:04:20;;;;;;;12.45;5.82;;;0.80;67.50;;;;;;2490089;55;20949;-69
2021/01/16 06:06:46;;;;;;;11.95;5.90;;;0.80;67.30;;;;;;2261419;56;21024;-69
2021/01/16 06:09:17;;;;;;;11.20;5.32;;;0.80;67.00;;;;;;2488527;55;20977;-69
2021/01/16 06:11:49;;;;;;;12.65;5.68;;;0.70;66.70;;;;;;2486130;55;20921;-68
2021/01/16 06:14:17;;;;;;;15.73;7.20;;;0.70;66.60;;;;;;2489491;55;20953;-69
2021/01/16 06:16:57;;;;;;;13.48;6.65;;;0.60;66.40;;;;;;2485827;55;20979;-68
2021/01/16 06:19:24;;;;;;;16.92;7.70;;;0.60;66.20;;;;;;2262472;56;20925;-68
2021/01/16 06:21:52;;;;;;;14.35;7.18;;;0.60;66.10;;;;;;2261885;56;21802;-69
2021/01/16 06:24:20;;;;;;;15.30;7.35;;;0.50;66.00;;;;;;2261110;56;20929;-69
2021/01/16 06:26:59;;;;;;;16.20;8.18;;;0.50;66.10;;;;;;2490397;55;20960;-68
2021/01/16 06:29:29;;;;;;;17.42;7.90;;;0.50;66.00;;;;;;2485703;55;20956;-69
2021/01/16 06:32:10;;;;;;;18.40;8.13;;;0.40;65.80;;;;;;2267922;56;21026;-68
2021/01/16 06:34:41;;;;;;;21.15;8.63;;;0.40;65.50;;;;;;2473881;55;21040;-68
2021/01/16 06:37:14;;;;;;;22.40;8.70;;;0.30;65.40;;;;;;2271578;56;21462;-68
2021/01/16 06:42:08;;;;;;;22.40;9.82;;;0.20;65.20;;;;;;2315525;53;21866;-69
2021/01/16 06:44:34;;;;;;;25.35;9.68;;;0.20;65.10;;;;;;2540419;53;21451;-69
2021/01/16 06:47:01;;;;;;;21.45;9.05;;;0.10;65.10;;;;;;2563850;53;20931;-68
2021/01/16 06:49:28;;;;;;;16.70;7.15;;;0.00;65.10;;;;;;2531767;53;21116;-69
2021/01/16 06:52:03;;;;;;;28.85;10.35;;;0.00;65.20;;;;;;2570632;53;21709;-68
2021/01/16 06:54:31;;;;;;;29.80;10.80;;;0.00;65.40;;;;;;2562306;53;20952;-69
2021/01/16 06:57:08;;;;;;;34.08;12.10;;;0.00;65.60;;;;;;2587101;53;21041;-68
2021/01/16 06:59:43;;;;;;;27.62;11.20;;;-0.10;65.70;;;;;;2572025;53;20948;-68
2021/01/16 07:02:23;;;;;;;27.70;10.82;;;-0.10;65.80;;;;;;2545820;53;20928;-68
2021/01/16 07:04:54;;;;;;;43.03;15.45;;;-0.10;66.00;;;;;;2552043;52;21015;-68
2021/01/16 07:07:42;;;;;;;26.52;12.32;;;-0.10;66.10;;;;;;2543395;53;21068;-69
2021/01/16 07:10:18;;;;;;;23.27;11.05;;;-0.10;66.10;;;;;;2550675;53;20937;-69
2021/01/16 07:12:48;;;;;;;21.87;10.85;;;-0.10;66.20;;;;;;2315464;53;21045;-69
2021/01/16 07:15:19;;;;;;;23.48;11.30;;;-0.10;66.30;;;;;;2538449;53;20987;-68
2021/01/16 07:17:46;;;;;;;21.45;11.45;;;-0.10;66.50;;;;;;2547294;53;20940;-68
2021/01/16 07:20:13;;;;;;;22.35;9.70;;;-0.10;66.70;;;;;;2551505;53;20959;-68
2021/01/16 07:22:41;;;;;;;20.98;9.82;;;0.00;67.00;;;;;;2568939;53;21610;-69
2021/01/16 07:25:14;;;;;;;17.33;8.60;;;0.00;67.10;;;;;;2554307;53;21776;-69
2021/01/16 07:27:41;;;;;;;17.87;7.82;;;0.00;67.10;;;;;;2567562;53;21438;-68
2021/01/16 07:30:10;;;;;;;18.90;7.85;;;0.00;67.20;;;;;;2604948;53;20956;-68
2021/01/16 07:32:49;;;;;;;17.85;8.25;;;0.10;67.40;;;;;;2601360;53;21064;-69
2021/01/16 07:35:19;;;;;;;15.82;7.87;;;0.10;67.40;;;;;;2583433;53;20928;-68
2021/01/16 07:37:47;;;;;;;20.12;8.52;;;0.10;67.50;;;;;;2606425;53;21765;-69
2021/01/16 07:40:28;;;;;;;19.40;8.55;;;0.10;67.60;;;;;;2356326;54;20969;-68
2021/01/16 07:43:26;;;;;;;16.58;8.55;;;0.20;67.70;;;;;;2595327;53;21079;-68
2021/01/16 07:45:58;;;;;;;19.58;8.48;;;0.20;67.90;;;;;;2593747;53;20957;-70
2021/01/16 07:48:24;;;;;;;21.17;9.00;;;0.30;68.20;;;;;;2357432;54;20950;-69
2021/01/16 07:50:52;;;;;;;17.50;8.27;;;0.30;68.30;;;;;;2352322;54;20988;-69
2021/01/16 07:53:25;;;;;;;20.83;9.40;;;0.30;68.40;;;;;;2566924;53;20955;-68
2021/01/16 07:56:02;;;;;;;15.32;7.87;;;0.40;68.60;;;;;;2354360;54;21389;-69
2021/01/16 07:58:55;;;;;;;18.60;8.40;;;0.40;68.50;;;;;;2604499;53;20992;-68
2021/01/16 08:02:31;;;;;;;16.90;8.52;;;0.50;68.40;;;;;;2345884;54;21036;-70
2021/01/16 08:05:04;;;;;;;22.55;8.50;;;0.50;68.20;;;;;;2605212;53;21015;-69
2021/01/16 08:12:37;;;;;;;16.33;8.50;;;0.60;68.30;;;;;;2355393;54;20965;-70
2021/01/16 08:15:04;;;;;;;17.05;8.18;;;0.70;67.90;;;;;;2335592;54;20949;-69
2021/01/16 08:17:38;;;;;;;16.52;7.80;;;0.70;68.20;;;;;;2353009;54;21064;-70
2021/01/16 08:22:42;;;;;;;16.00;8.45;;;0.70;68.30;;;;;;2355139;54;20985;-68
2021/01/16 08:25:10;;;;;;;20.23;10.15;;;0.80;68.10;;;;;;2605112;53;20921;-70
2021/01/16 08:27:47;;;;;;;23.98;10.52;;;0.80;68.40;;;;;;2598849;53;20920;-68
2021/01/16 08:30:24;;;;;;;21.23;10.93;;;0.90;68.70;;;;;;2336669;54;20900;-71
2021/01/16 08:33:35;;;;;;;18.85;9.90;;;0.90;69.50;;;;;;2358564;54;20968;-69
2021/01/16 08:36:19;;;;;;;20.55;10.15;;;1.00;68.80;;;;;;2604655;53;21016;-70
2021/01/16 08:38:46;;;;;;;21.92;10.40;;;1.00;68.90;;;;;;2580094;53;21783;-69
2021/01/16 08:41:20;;;;;;;22.30;11.23;;;1.10;69.00;;;;;;2578587;53;21128;-68
2021/01/16 08:43:54;;;;;;;21.62;11.00;;;1.10;69.10;;;;;;2325888;54;20984;-68
2021/01/16 08:46:36;;;;;;;21.37;12.37;;;1.20;69.10;;;;;;2571664;53;21833;-70
2021/01/16 08:49:15;;;;;;;21.92;10.70;;;1.20;69.00;;;;;;2587599;53;21561;-68
2021/01/16 08:51:45;;;;;;;21.20;10.52;;;1.20;69.10;;;;;;2570021;53;20940;-70
2021/01/16 08:54:21;;;;;;;21.80;11.23;;;1.30;69.20;;;;;;2600582;53;20922;-69
2021/01/16 08:56:54;;;;;;;20.77;10.65;;;1.40;69.20;;;;;;2571780;53;20986;-69
2021/01/16 08:59:30;;;;;;;22.48;12.68;;;1.40;69.20;;;;;;2605007;53;20926;-70
2021/01/16 09:02:10;;;;;;;20.27;11.15;;;1.40;69.00;;;;;;2571950;53;20914;-70
2021/01/16 09:04:44;;;;;;;19.80;10.50;;;1.50;69.10;;;;;;2603267;53;20905;-68
2021/01/16 09:07:29;;;;;;;19.65;10.43;;;1.50;69.10;;;;;;2569180;53;20915;-68
2021/01/16 09:10:06;;;;;;;20.30;10.80;;;1.60;69.10;;;;;;2544789;53;20953;-68
2021/01/16 09:12:42;;;;;;;26.95;12.60;;;1.60;69.00;;;;;;2603764;53;20984;-68
2021/01/16 09:15:21;;;;;;;26.80;13.45;;;1.60;69.10;;;;;;2343073;54;21473;-71
2021/01/16 09:18:09;;;;;;;26.98;14.07;;;1.70;69.30;;;;;;2346606;54;21773;-70
2021/01/16 09:20:37;;;;;;;31.30;16.40;;;1.70;69.30;;;;;;2334549;54;20943;-70
2021/01/16 09:29:52;;;;;;;24.37;13.02;;;1.70;69.40;;;;;;2570984;53;21020;-70
2021/01/16 09:32:32;;;;;;;20.10;10.52;;;1.90;68.60;;;;;;2602614;53;21037;-70
2021/01/16 09:34:58;;;;;;;23.80;11.38;;;1.90;69.20;;;;;;2570809;53;20952;-70
2021/01/16 09:37:26;;;;;;;24.17;11.68;;;2.00;69.40;;;;;;2351896;54;21001;-68
2021/01/16 09:40:03;;;;;;;25.83;12.82;;;2.00;69.40;;;;;;2578994;53;20926;-70
2021/01/16 09:42:29;;;;;;;34.10;16.23;;;2.00;69.50;;;;;;2334243;54;20945;-70
2021/01/16 09:44:59;;;;;;;29.55;14.70;;;2.00;69.50;;;;;;2332087;53;20921;-69
2021/01/16 09:47:49;;;;;;;27.58;14.02;;;2.10;69.60;;;;;;2332254;53;20996;-70
2021/01/16 09:50:20;;;;;;;27.37;13.45;;;2.10;69.50;;;;;;2579272;53;21026;-69
2021/01/16 09:52:49;;;;;;;29.45;12.00;;;2.10;69.70;;;;;;2315648;53;20920;-69
2021/01/16 09:55:25;;;;;;;27.77;12.85;;;2.20;69.70;;;;;;2332763;53;20991;-69
2021/01/16 09:57:52;;;;;;;23.05;11.20;;;2.20;69.50;;;;;;2329432;53;21102;-70
2021/01/16 10:00:34;;;;;;;26.45;11.52;;;2.20;69.50;;;;;;2331864;53;20984;-70
2021/01/16 10:03:08;;;;;;;24.63;11.95;;;2.30;69.50;;;;;;2550275;53;21019;-71
2021/01/16 10:05:39;;;;;;;25.15;12.43;;;2.30;69.60;;;;;;2280892;55;20947;-70
2021/01/16 10:08:06;;;;;;;22.08;11.35;;;2.30;69.70;;;;;;2543470;53;20932;-70
2021/01/16 10:10:45;;;;;;;24.05;11.68;;;2.40;69.90;;;;;;2557444;53;20988;-69
2021/01/16 10:13:13;;;;;;;25.10;11.15;;;2.40;69.70;;;;;;2555647;53;21669;-69
2021/01/16 10:15:45;;;;;;;24.85;12.15;;;2.50;69.90;;;;;;2578053;53;20945;-70
2021/01/16 10:18:15;;;;;;;21.42;10.82;;;2.50;69.80;;;;;;2591353;52;20938;-70
2021/01/16 10:20:42;;;;;;;24.08;11.45;;;2.50;69.70;;;;;;2360191;54;20919;-69
2021/01/16 10:23:09;;;;;;;22.65;10.75;;;2.50;69.70;;;;;;2351880;54;20923;-70
2021/01/16 10:25:40;;;;;;;20.05;10.82;;;2.60;69.80;;;;;;2572093;53;20978;-70
2021/01/16 10:28:10;;;;;;;20.48;9.75;;;2.60;69.90;;;;;;2572854;53;20899;-70
2021/01/16 10:30:36;;;;;;;19.55;9.65;;;2.60;70.70;;;;;;2539343;53;20948;-70
2021/01/16 10:33:43;;;;;;;22.42;10.88;;;2.70;70.00;;;;;;2342569;54;21054;-70
2021/01/16 10:36:19;;;;;;;23.02;10.85;;;2.70;69.60;;;;;;2351877;54;20971;-70
2021/01/16 10:38:51;;;;;;;24.73;11.52;;;2.70;69.60;;;;;;2576690;53;20995;-70
2021/01/16 10:41:31;;;;;;;26.40;12.57;;;2.80;69.50;;;;;;2549546;53;21144;-71
2021/01/16 10:44:02;;;;;;;28.12;14.52;;;2.70;69.40;;;;;;2301682;54;21309;-70
2021/01/16 10:46:47;;;;;;;30.33;16.35;;;2.80;69.30;;;;;;2576704;53;21021;-70
2021/01/16 10:49:18;;;;;;;25.52;13.02;;;2.80;69.10;;;;;;2333879;53;20977;-69
2021/01/16 10:51:58;;;;;;;25.15;12.60;;;2.80;69.10;;;;;;2569286;53;20929;-70
2021/01/16 10:54:25;;;;;;;26.52;12.13;;;2.80;69.20;;;;;;2593488;53;20961;-69
2021/01/16 10:57:01;;;;;;;23.48;11.70;;;2.80;69.30;;;;;;2335232;53;21827;-70
2021/01/16 10:59:34;;;;;;;22.50;10.45;;;2.80;69.40;;;;;;2332857;53;21004;-70
2021/01/16 11:02:15;;;;;;;23.33;11.32;;;2.80;69.80;;;;;;2563790;53;20950;-69
2021/01/16 11:04:45;;;;;;;19.25;10.10;;;3.00;69.80;;;;;;2336421;54;20923;-70
2021/01/16 11:07:27;;;;;;;24.55;11.23;;;2.90;69.70;;;;;;2564141;53;20906;-70
2021/01/16 11:10:07;;;;;;;20.92;10.30;;;2.90;69.60;;;;;;2575251;53;21051;-71
2021/01/16 11:12:34;;;;;;;19.15;9.30;;;2.90;69.50;;;;;;2600742;53;21891;-69
2021/01/16 11:15:00;;;;;;;17.62;8.90;;;2.90;69.60;;;;;;2598031;53;20956;-71
2021/01/16 11:17:46;;;;;;;19.08;8.90;;;3.00;69.60;;;;;;2569809;53;21032;-70
2021/01/16 11:20:36;;;;;;;19.10;9.73;;;3.00;69.30;;;;;;2577403;53;20957;-70
2021/01/16 11:23:29;;;;;;;19.85;9.40;;;3.00;69.40;;;;;;2352121;54;20945;-71
2021/01/16 11:25:56;;;;;;;18.12;9.20;;;3.00;69.20;;;;;;2602660;53;22013;-71
2021/01/16 11:28:26;;;;;;;17.12;8.70;;;3.00;69.20;;;;;;2599693;53;21631;-70
2021/01/16 11:31:06;;;;;;;19.60;9.95;;;3.10;69.50;;;;;;2598069;53;20976;-71
2021/01/16 11:33:32;;;;;;;20.08;10.10;;;3.10;69.40;;;;;;2602255;53;21000;-70
2021/01/16 11:36:15;;;;;;;20.00;10.07;;;3.10;69.50;;;;;;2591787;53;21094;-71
2021/01/16 11:38:45;;;;;;;;;;;3.10;69.20;;;;;;2588751;53;21003;-71
2021/01/16 11:41:13;;;;;;;23.33;11.98;;;3.20;68.50;;;;;;2601818;53;20218;-70
2021/01/16 11:43:39;;;;;;;23.25;11.38;;;3.20;69.00;;;;;;2353127;54;21000;-71
2021/01/16 11:46:15;;;;;;;23.85;11.45;;;3.20;69.10;;;;;;2340110;54;20933;-70
2021/01/16 11:48:43;;;;;;;21.25;11.07;;;3.20;69.10;;;;;;2593258;53;20937;-70
2021/01/16 11:51:22;;;;;;;18.00;9.60;;;3.20;69.10;;;;;;2563999;53;20995;-71
2021/01/16 11:53:50;;;;;;;16.25;8.27;;;3.20;69.00;;;;;;2562716;53;20977;-69
2021/01/16 11:56:25;;;;;;;19.37;9.13;;;3.20;69.90;;;;;;2353571;54;20953;-70
2021/01/16 11:58:52;;;;;;;13.95;7.30;;;3.20;69.50;;;;;;2364619;54;20962;-71
2021/01/16 12:01:19;;;;;;;18.02;9.30;;;3.20;69.50;;;;;;2351044;54;20962;-70
2021/01/16 12:03:45;;;;;;;16.92;8.70;;;3.20;69.10;;;;;;2586694;52;20969;-71
2021/01/16 12:06:16;;;;;;;17.62;9.10;;;3.20;69.20;;;;;;2611640;52;21377;-70
2021/01/16 12:08:46;;;;;;;16.80;8.77;;;3.20;69.20;;;;;;2361954;54;20952;-70
2021/01/16 12:11:13;;;;;;;15.52;8.00;;;3.20;69.20;;;;;;2586160;52;20946;-71
2021/01/16 12:13:40;;;;;;;15.25;7.75;;;3.30;69.40;;;;;;2612903;52;20954;-70
2021/01/16 12:16:10;;;;;;;17.30;7.60;;;3.30;69.40;;;;;;2356033;54;21048;-71
2021/01/16 12:18:37;;;;;;;17.85;9.15;;;3.30;69.60;;;;;;2574218;53;21584;-71
2021/01/16 12:21:03;;;;;;;16.37;8.52;;;3.40;69.60;;;;;;2608422;52;21014;-72
2021/01/16 12:23:44;;;;;;;15.63;7.87;;;3.40;69.60;;;;;;2612520;52;20978;-70
2021/01/16 12:26:15;;;;;;;19.37;9.63;;;3.40;69.30;;;;;;2613579;52;21026;-71
2021/01/16 12:28:48;;;;;;;19.27;8.98;;;3.50;69.10;;;;;;2608735;52;20918;-70
2021/01/16 12:31:21;;;;;;;19.27;9.23;;;3.50;68.80;;;;;;2572745;53;20985;-72
2021/01/16 12:33:48;;;;;;;17.52;7.70;;;3.50;68.70;;;;;;2595068;52;21269;-70
2021/01/16 12:36:15;;;;;;;19.42;8.10;;;3.50;68.80;;;;;;2593646;52;21041;-71
2021/01/16 12:38:41;;;;;;;15.07;7.55;;;3.50;68.90;;;;;;2340003;54;20957;-71
2021/01/16 12:41:07;;;;;;;16.73;9.18;;;3.50;68.90;;;;;;2593615;52;20969;-71
2021/01/16 12:43:33;;;;;;;13.43;7.30;;;3.50;68.90;;;;;;2599850;52;20974;-71
2021/01/16 12:46:09;;;;;;;15.25;7.82;;;3.50;68.80;;;;;;2613631;52;20964;-71
2021/01/16 12:48:36;;;;;;;13.93;7.28;;;3.50;68.70;;;;;;2361218;54;21021;-72
2021/01/16 12:51:04;;;;;;;14.95;7.95;;;3.50;68.90;;;;;;2604642;52;20996;-71
2021/01/16 12:53:30;;;;;;;16.05;7.87;;;3.50;68.90;;;;;;2586275;52;20961;-71
2021/01/16 12:55:58;;;;;;;15.88;8.25;;;3.60;68.80;;;;;;2563321;53;21878;-72
2021/01/16 12:58:24;;;;;;;17.08;9.23;;;3.50;68.30;;;;;;2595268;52;21367;-71
2021/01/16 13:00:52;;;;;;;18.83;9.82;;;3.50;68.00;;;;;;2584669;52;21044;-70
2021/01/16 13:03:18;;;;;;;17.23;8.70;;;3.50;68.10;;;;;;2589289;52;22963;-70
2021/01/16 13:05:45;;;;;;;16.75;8.65;;;3.50;68.10;;;;;;2352935;54;20970;-71
2021/01/16 13:08:14;;;;;;;15.52;8.30;;;3.50;68.10;;;;;;2362684;54;20946;-70
2021/01/16 13:10:45;;;;;;;16.20;8.45;;;3.50;68.10;;;;;;2613384;52;21451;-71
2021/01/16 13:13:12;;;;;;;15.38;8.48;;;3.50;68.10;;;;;;2613057;52;21080;-71
2021/01/16 13:15:41;;;;;;;17.75;8.85;;;3.40;68.10;;;;;;2613624;52;20973;-71
2021/01/16 13:18:18;;;;;;;14.90;8.15;;;3.40;68.00;;;;;;2579553;52;21039;-71
2021/01/16 13:20:54;;;;;;;20.10;9.73;;;3.40;67.80;;;;;;2340424;54;21016;-71
2021/01/16 13:24:14;;;;;;;17.15;9.20;;;3.40;68.20;;;;;;2581366;52;21012;-72